createdAt,value
2022-08-05T00:01:01.027Z,3.30
2022-08-05T00:02:07.634Z,5.40
2022-08-05T00:02:59.178Z,5.90
2022-08-05T00:03:58.188Z,2.90
2022-08-05T00:04:58.147Z,3.40
2022-08-05T00:06:04.859Z,2.90
2022-08-05T00:06:59.119Z,5.90
2022-08-05T00:08:00.878Z,4.60
2022-08-05T00:08:58.130Z,4.10
2022-08-05T00:09:58.089Z,3.70
2022-08-05T00:11:00.804Z,3.80
2022-08-05T00:12:00.007Z,5.10
2022-08-05T00:12:58.047Z,4.60
2022-08-05T00:13:58.037Z,3.30
2022-08-05T00:14:58.040Z,5.70
2022-08-05T00:16:00.416Z,4.40
2022-08-05T00:16:58.003Z,5.90
2022-08-05T00:17:57.997Z,2.50
2022-08-05T00:18:57.957Z,2.90
2022-08-05T00:20:02.418Z,4.20
2022-08-05T00:20:58.936Z,5.20
2022-08-05T00:21:57.940Z,5.80
2022-08-05T00:23:02.324Z,5.40
2022-08-05T00:24:10.478Z,5.50
2022-08-05T00:24:58.901Z,3.50
2022-08-05T00:25:57.878Z,4.30
2022-08-05T00:26:58.574Z,3.40
2022-08-05T00:27:57.858Z,5.30
2022-08-05T00:28:57.840Z,4.40
2022-08-05T00:29:57.837Z,5.20
2022-08-05T00:30:57.805Z,3.60
2022-08-05T00:32:12.810Z,4.10
2022-08-05T00:32:58.798Z,3.50
2022-08-05T00:34:53.412Z,3.90
2022-08-05T00:35:06.749Z,5.60
2022-08-05T00:36:16.095Z,3.80
2022-08-05T00:37:13.074Z,4.70
2022-08-05T00:37:58.716Z,4.40
2022-08-05T00:38:57.707Z,4.60
2022-08-05T00:39:58.992Z,2.40
2022-08-05T00:40:57.677Z,5.40
2022-08-05T00:41:57.666Z,5.30
2022-08-05T00:42:57.647Z,4.30
2022-08-05T00:43:57.646Z,6.50
2022-08-05T00:44:57.626Z,6.20
2022-08-05T00:45:57.626Z,4.40
2022-08-05T00:47:02.176Z,5.40
2022-08-05T00:48:06.025Z,4.40
2022-08-05T00:48:58.572Z,4.70
2022-08-05T00:49:57.564Z,4.90
2022-08-05T00:50:57.554Z,5.60
2022-08-05T00:51:57.548Z,2.70
2022-08-05T00:52:57.524Z,4.60
2022-08-05T00:54:02.248Z,3.90
2022-08-05T00:54:58.484Z,8.40
2022-08-05T00:55:57.494Z,2.80
2022-08-05T00:56:57.479Z,6.30
2022-08-05T00:57:58.896Z,4.30
2022-08-05T00:58:57.433Z,5.10
2022-08-05T00:59:57.445Z,8.70
2022-08-05T01:00:57.530Z,4.00
2022-08-05T01:01:57.431Z,5.80
2022-08-05T01:02:57.383Z,6.00
2022-08-05T01:03:57.385Z,4.20
2022-08-05T01:04:57.356Z,4.80
2022-08-05T01:05:57.364Z,4.00
2022-08-05T01:06:57.334Z,3.90
2022-08-05T01:08:41.465Z,4.00
2022-08-05T01:08:58.304Z,2.80
2022-08-05T01:09:57.294Z,4.10
2022-08-05T01:10:57.950Z,4.40
2022-08-05T01:11:59.756Z,3.50
2022-08-05T01:13:12.797Z,4.20
2022-08-05T01:13:59.783Z,4.00
2022-08-05T01:14:57.238Z,4.20
2022-08-05T01:15:57.222Z,7.20
2022-08-05T01:16:57.221Z,4.80
2022-08-05T01:17:57.203Z,4.10
2022-08-05T01:18:57.184Z,4.90
2022-08-05T01:20:01.823Z,7.00
2022-08-05T01:20:58.154Z,4.60
2022-08-05T01:21:57.153Z,7.10
2022-08-05T01:22:57.423Z,5.90
2022-08-05T01:23:57.103Z,6.10
2022-08-05T01:24:57.111Z,4.50
2022-08-05T01:25:57.085Z,7.20
2022-08-05T01:26:57.092Z,5.00
2022-08-05T01:27:57.062Z,5.10
2022-08-05T01:28:57.052Z,7.10
2022-08-05T01:29:58.033Z,4.20
2022-08-05T01:30:57.020Z,4.20
2022-08-05T01:31:57.022Z,6.80
2022-08-05T01:32:56.992Z,7.60
2022-08-05T01:33:56.982Z,5.50
2022-08-05T01:34:56.965Z,4.50
2022-08-05T01:35:57.525Z,3.80
2022-08-05T01:36:56.951Z,6.60
2022-08-05T01:37:56.942Z,7.40
2022-08-05T01:39:00.363Z,5.20
2022-08-05T01:39:58.999Z,5.10
2022-08-05T01:40:56.892Z,4.30
2022-08-05T01:41:56.893Z,3.90
2022-08-05T01:42:56.881Z,7.70
2022-08-05T01:43:56.851Z,4.90
2022-08-05T01:44:56.852Z,4.30
2022-08-05T01:45:57.189Z,8.50
2022-08-05T01:46:56.811Z,3.70
2022-08-05T01:47:56.801Z,5.80
2022-08-05T01:48:56.791Z,4.80
2022-08-05T01:50:02.107Z,8.80
2022-08-05T01:50:57.761Z,4.90
2022-08-05T01:51:56.758Z,7.20
2022-08-05T01:52:56.751Z,4.90
2022-08-05T01:53:58.827Z,6.70
2022-08-05T01:54:56.711Z,3.00
2022-08-05T01:55:56.690Z,3.20
2022-08-05T01:58:11.544Z,4.50
2022-08-05T01:58:18.883Z,4.80
2022-08-05T01:58:57.660Z,5.30
2022-08-05T01:59:56.643Z,5.10
2022-08-05T02:00:56.629Z,3.10
2022-08-05T02:01:56.673Z,3.20
2022-08-05T02:02:56.610Z,5.00
2022-08-05T02:03:56.599Z,5.60
2022-08-05T02:04:56.579Z,4.20
2022-08-05T02:05:59.741Z,4.90
2022-08-05T02:06:56.559Z,5.20
2022-08-05T02:07:59.896Z,4.00
2022-08-05T02:08:58.755Z,3.80
2022-08-05T02:09:56.509Z,6.80
2022-08-05T02:10:56.510Z,7.60
2022-08-05T02:11:56.509Z,3.80
2022-08-05T02:12:56.479Z,6.60
2022-08-05T02:13:56.470Z,3.90
2022-08-05T02:14:56.449Z,5.20
2022-08-05T02:15:56.437Z,4.30
2022-08-05T02:16:56.419Z,6.10
2022-08-05T02:18:31.379Z,4.60
2022-08-05T02:18:57.419Z,4.20
2022-08-05T02:19:56.378Z,6.10
2022-08-05T02:20:58.850Z,5.50
2022-08-05T02:21:56.349Z,2.90
2022-08-05T02:22:56.341Z,4.70
2022-08-05T02:23:56.329Z,6.90
2022-08-05T02:24:56.331Z,5.20
2022-08-05T02:25:56.297Z,5.70
2022-08-05T02:26:56.287Z,4.30
2022-08-05T02:27:59.113Z,7.30
2022-08-05T02:28:56.276Z,7.30
2022-08-05T02:29:59.022Z,3.10
2022-08-05T02:30:56.692Z,6.40
2022-08-05T02:31:56.244Z,7.30
2022-08-05T02:32:56.219Z,4.50
2022-08-05T02:33:57.481Z,3.10
2022-08-05T02:34:56.277Z,5.90
2022-08-05T02:35:59.138Z,4.30
2022-08-05T02:36:57.159Z,3.30
2022-08-05T02:37:56.149Z,3.60
2022-08-05T02:38:56.149Z,5.30
2022-08-05T02:39:56.125Z,4.10
2022-08-05T02:40:56.116Z,5.60
2022-08-05T02:42:01.009Z,5.50
2022-08-05T02:42:57.077Z,3.40
2022-08-05T02:44:02.317Z,4.90
2022-08-05T02:44:57.057Z,4.30
2022-08-05T02:45:56.055Z,5.60
2022-08-05T02:46:59.736Z,5.40
2022-08-05T02:48:06.729Z,6.10
2022-08-05T02:48:57.006Z,4.70
2022-08-05T02:49:55.996Z,6.50
2022-08-05T02:50:55.996Z,3.20
2022-08-05T02:52:03.122Z,5.70
2022-08-05T02:52:56.955Z,5.50
2022-08-05T02:53:55.935Z,6.10
2022-08-05T02:54:56.936Z,8.00
2022-08-05T02:56:00.295Z,4.00
2022-08-05T02:56:56.896Z,4.10
2022-08-05T02:58:10.138Z,5.60
2022-08-05T02:58:56.876Z,6.50
2022-08-05T02:59:55.856Z,5.90
2022-08-05T03:00:55.866Z,9.50
2022-08-05T03:01:55.900Z,8.10
2022-08-05T03:02:55.831Z,7.80
2022-08-05T03:04:02.597Z,4.40
2022-08-05T03:04:56.795Z,5.80
2022-08-05T03:06:55.156Z,7.70
2022-08-05T03:06:59.355Z,6.80
2022-08-05T03:08:06.910Z,5.70
2022-08-05T03:08:56.743Z,4.90
2022-08-05T03:09:55.736Z,7.90
2022-08-05T03:11:53.129Z,9.60
2022-08-05T03:11:58.318Z,8.00
2022-08-05T03:13:51.438Z,5.40
2022-08-05T03:14:30.129Z,5.60
2022-08-05T03:15:29.122Z,10.50
2022-08-05T03:16:29.118Z,5.20
2022-08-05T03:17:29.099Z,8.60
2022-08-05T03:18:30.053Z,6.60
2022-08-05T03:19:34.553Z,7.10
2022-08-05T03:20:30.048Z,7.20
2022-08-05T03:21:29.069Z,8.90
2022-08-05T03:22:32.136Z,7.60
2022-08-05T03:23:29.019Z,5.30
2022-08-05T03:24:30.142Z,6.10
2022-08-05T03:25:32.764Z,7.50
2022-08-05T03:26:31.471Z,10.20
2022-08-05T03:27:29.583Z,9.90
2022-08-05T03:28:29.960Z,9.00
2022-08-05T03:29:45.821Z,7.70
2022-08-05T03:30:33.820Z,7.20
2022-08-05T03:31:56.488Z,6.70
2022-08-05T03:32:30.635Z,8.70
2022-08-05T03:33:42.222Z,8.50
2022-08-05T03:34:29.869Z,7.10
2022-08-05T03:35:28.869Z,8.00
2022-08-05T03:36:30.255Z,7.10
2022-08-05T03:37:28.850Z,6.20
2022-08-05T03:38:33.345Z,8.90
2022-08-05T03:39:29.850Z,9.50
2022-08-05T03:40:32.083Z,6.70
2022-08-05T03:41:32.915Z,8.70
2022-08-05T03:42:29.045Z,8.00
2022-08-05T03:44:09.702Z,8.40
2022-08-05T03:44:29.754Z,5.70
2022-08-05T03:45:28.738Z,9.90
2022-08-05T03:46:30.029Z,6.20
2022-08-05T03:47:30.413Z,5.70
2022-08-05T03:48:29.840Z,6.50
2022-08-05T03:49:31.228Z,7.50
2022-08-05T03:50:29.676Z,6.10
2022-08-05T03:52:39.017Z,8.30
2022-08-05T03:52:39.069Z,8.80
2022-08-05T03:55:50.895Z,7.40
2022-08-05T03:55:51.689Z,4.70
2022-08-05T03:56:04.360Z,10.60
2022-08-05T03:56:34.764Z,8.00
2022-08-05T03:57:42.308Z,7.10
2022-08-05T03:58:29.575Z,7.90
2022-08-05T03:59:29.030Z,6.80
2022-08-05T04:00:29.539Z,8.70
2022-08-05T04:01:28.597Z,7.50
2022-08-05T04:02:37.334Z,9.00
2022-08-05T04:03:29.515Z,6.10
2022-08-05T04:04:28.494Z,5.90
2022-08-05T04:05:33.921Z,6.40
2022-08-05T04:06:29.464Z,9.50
2022-08-05T04:07:28.455Z,7.30
2022-08-05T04:08:34.841Z,9.70
2022-08-05T04:09:29.414Z,6.40
2022-08-05T04:10:32.015Z,7.20
2022-08-05T04:11:47.092Z,8.00
2022-08-05T04:12:29.375Z,10.40
2022-08-05T04:13:49.798Z,8.10
2022-08-05T04:14:29.864Z,10.80
2022-08-05T04:15:33.219Z,8.90
2022-08-05T04:16:32.700Z,10.60
2022-08-05T04:17:36.423Z,6.70
2022-08-05T04:18:29.306Z,5.90
2022-08-05T04:19:28.295Z,8.00
2022-08-05T04:20:28.274Z,8.30
2022-08-05T04:22:10.119Z,9.30
2022-08-05T04:22:29.248Z,7.40
2022-08-05T04:24:05.396Z,4.80
2022-08-05T04:24:29.273Z,7.70
2022-08-05T04:25:56.517Z,7.90
2022-08-05T04:26:32.433Z,9.90
2022-08-05T04:27:42.118Z,9.00
2022-08-05T04:28:30.836Z,6.90
2022-08-05T04:29:28.172Z,7.20
2022-08-05T04:30:28.144Z,10.30
2022-08-05T04:31:37.522Z,10.10
2022-08-05T04:32:30.831Z,5.10
2022-08-05T04:33:36.368Z,7.50
2022-08-05T04:34:32.860Z,7.50
2022-08-05T04:36:15.656Z,10.20
2022-08-05T04:36:49.489Z,6.40
2022-08-05T04:38:00.898Z,9.80
2022-08-05T04:38:39.288Z,12.50
2022-08-05T04:39:29.079Z,10.10
2022-08-05T04:40:28.012Z,7.50
2022-08-05T04:41:34.097Z,7.40
2022-08-05T04:42:28.992Z,12.70
2022-08-05T04:43:28.005Z,10.40
2022-08-05T04:44:29.898Z,7.90
2022-08-05T04:45:48.648Z,10.40
2022-08-05T04:46:28.941Z,11.10
2022-08-05T04:47:27.940Z,9.90
2022-08-05T04:48:28.915Z,6.80
2022-08-05T04:49:38.499Z,9.70
2022-08-05T04:50:37.167Z,10.90
2022-08-05T04:51:30.298Z,8.90
2022-08-05T04:52:28.133Z,7.80
2022-08-05T04:53:27.842Z,8.00
2022-08-05T04:54:28.841Z,10.90
2022-08-05T04:56:11.866Z,14.90
2022-08-05T04:56:34.244Z,10.20
2022-08-05T04:57:37.013Z,12.60
2022-08-05T04:58:28.782Z,11.10
2022-08-05T04:59:36.604Z,9.10
2022-08-05T05:00:28.771Z,9.30
2022-08-05T05:01:59.664Z,12.10
2022-08-05T05:02:36.463Z,11.60
2022-08-05T05:03:28.720Z,10.50
2022-08-05T05:04:28.701Z,8.50
2022-08-05T05:05:29.098Z,13.20
2022-08-05T05:06:39.418Z,9.00
2022-08-05T05:07:29.671Z,12.00
2022-08-05T05:08:30.378Z,11.80
2022-08-05T05:09:27.643Z,15.50
2022-08-05T05:10:27.629Z,14.90
2022-08-05T05:11:52.869Z,15.40
2022-08-05T05:12:28.598Z,15.00
2022-08-05T05:13:32.204Z,14.60
2022-08-05T05:14:32.221Z,13.90
2022-08-05T05:15:57.694Z,14.40
2022-08-05T05:16:30.352Z,10.90
2022-08-05T05:17:55.552Z,12.80
2022-08-05T05:18:33.219Z,13.70
2022-08-05T05:19:37.162Z,15.90
2022-08-05T05:20:29.025Z,13.90
2022-08-05T05:21:27.493Z,16.50
2022-08-05T05:22:27.469Z,12.90
2022-08-05T05:23:27.459Z,13.70
2022-08-05T05:24:56.319Z,16.10
2022-08-05T05:25:32.478Z,17.30
2022-08-05T05:26:28.287Z,13.80
2022-08-05T05:27:41.414Z,13.90
2022-08-05T05:28:28.389Z,20.80
2022-08-05T05:30:03.221Z,12.60
2022-08-05T05:30:30.954Z,15.20
2022-08-05T05:31:35.898Z,17.80
2022-08-05T05:32:27.335Z,11.70
2022-08-05T05:33:27.327Z,18.10
2022-08-05T05:34:27.386Z,16.20
2022-08-05T05:35:27.299Z,15.80
2022-08-05T05:36:28.364Z,20.80
2022-08-05T05:37:29.149Z,17.50
2022-08-05T05:38:28.261Z,20.50
2022-08-05T05:39:34.512Z,19.30
2022-08-05T05:40:28.228Z,19.00
2022-08-05T05:41:40.335Z,20.80
2022-08-05T05:42:28.217Z,18.30
2022-08-05T05:43:54.129Z,16.30
2022-08-05T05:44:37.481Z,17.60
2022-08-05T05:45:28.166Z,19.00
2022-08-05T05:46:27.148Z,17.00
2022-08-05T05:47:46.432Z,15.70
2022-08-05T05:48:28.308Z,19.40
2022-08-05T05:49:27.116Z,16.30
2022-08-05T05:50:27.097Z,22.20
2022-08-05T05:51:28.039Z,22.40
2022-08-05T05:52:31.367Z,18.30
2022-08-05T05:53:28.066Z,14.40
2022-08-05T05:54:50.312Z,14.70
2022-08-05T05:55:51.872Z,19.00
2022-08-05T05:56:32.240Z,22.20
2022-08-05T05:57:42.799Z,21.70
2022-08-05T05:58:31.792Z,19.70
2022-08-05T05:59:28.708Z,17.30
2022-08-05T06:00:31.452Z,20.30
2022-08-05T06:01:30.350Z,18.80
2022-08-05T06:02:36.663Z,26.00
2022-08-05T06:03:39.763Z,24.40
2022-08-05T06:04:27.991Z,27.30
2022-08-05T06:05:26.906Z,16.50
2022-08-05T06:06:27.926Z,21.30
2022-08-05T06:07:41.376Z,17.40
2022-08-05T06:08:32.700Z,15.60
2022-08-05T06:09:50.198Z,20.00
2022-08-05T06:10:29.473Z,14.90
2022-08-05T06:11:28.798Z,17.50
2022-08-05T06:12:27.257Z,19.20
2022-08-05T06:13:26.828Z,14.60
2022-08-05T06:14:27.874Z,19.30
2022-08-05T06:16:28.839Z,16.30
2022-08-05T06:16:32.621Z,16.60
2022-08-05T06:17:30.839Z,14.90
2022-08-05T06:18:31.124Z,14.90
2022-08-05T06:19:34.943Z,15.90
2022-08-05T06:20:28.718Z,16.10
2022-08-05T06:21:36.690Z,14.80
2022-08-05T06:22:27.693Z,14.70
2022-08-05T06:23:26.673Z,14.20
2022-08-05T06:24:27.666Z,15.70
2022-08-05T06:26:00.115Z,17.60
2022-08-05T06:26:27.631Z,17.10
2022-08-05T06:28:12.249Z,14.10
2022-08-05T06:28:28.418Z,18.90
2022-08-05T06:29:46.266Z,16.00
2022-08-05T06:30:27.581Z,16.30
2022-08-05T06:31:30.642Z,14.70
2022-08-05T06:32:28.808Z,17.80
2022-08-05T06:33:33.077Z,18.10
2022-08-05T06:34:27.813Z,17.20
2022-08-05T06:36:08.093Z,17.20
2022-08-05T06:36:27.534Z,19.70
2022-08-05T06:37:56.137Z,19.40
2022-08-05T06:38:36.683Z,19.50
2022-08-05T06:39:27.823Z,16.50
2022-08-05T06:40:27.939Z,19.70
2022-08-05T06:41:26.433Z,17.80
2022-08-05T06:42:27.170Z,22.30
2022-08-05T06:43:58.406Z,18.40
2022-08-05T06:44:27.425Z,22.30
2022-08-05T06:45:44.692Z,21.20
2022-08-05T06:46:30.167Z,21.30
2022-08-05T06:47:30.326Z,22.40
2022-08-05T06:48:50.311Z,22.80
2022-08-05T06:50:01.402Z,21.40
2022-08-05T06:50:27.382Z,19.80
2022-08-05T06:51:30.106Z,22.60
2022-08-05T06:52:38.192Z,24.40
2022-08-05T06:53:28.458Z,22.30
2022-08-05T06:54:26.292Z,30.80
2022-08-05T06:55:27.209Z,24.90
2022-08-05T06:56:27.120Z,27.90
2022-08-05T06:58:03.331Z,22.20
2022-08-05T06:58:34.958Z,24.80
2022-08-05T06:59:27.223Z,22.70
2022-08-05T07:00:26.182Z,20.50
2022-08-05T07:01:31.976Z,21.90
2022-08-05T07:02:27.171Z,26.80
2022-08-05T07:03:27.928Z,25.00
2022-08-05T07:04:27.160Z,19.90
2022-08-05T07:05:36.977Z,20.30
2022-08-05T07:06:28.426Z,26.40
2022-08-05T07:07:35.299Z,20.70
2022-08-05T07:08:27.069Z,20.40
2022-08-05T07:09:26.078Z,19.60
2022-08-05T07:10:32.683Z,21.40
2022-08-05T07:11:27.041Z,20.00
2022-08-05T07:12:26.028Z,21.90
2022-08-05T07:13:37.236Z,23.50
2022-08-05T07:14:29.384Z,21.10
2022-08-05T07:15:34.769Z,20.90
2022-08-05T07:17:57.195Z,20.50
2022-08-05T07:18:08.380Z,19.00
2022-08-05T07:18:29.132Z,20.60
2022-08-05T07:20:10.656Z,19.80
2022-08-05T07:20:37.150Z,19.00
2022-08-05T07:21:26.919Z,19.20
2022-08-05T07:22:29.134Z,21.40
2022-08-05T07:23:26.419Z,21.10
2022-08-05T07:24:28.646Z,17.30
2022-08-05T07:25:56.298Z,22.20
2022-08-05T07:26:26.847Z,17.50
2022-08-05T07:27:27.730Z,19.80
2022-08-05T07:28:26.807Z,18.70
2022-08-05T07:30:22.843Z,18.80
2022-08-05T07:30:32.004Z,18.50
2022-08-05T07:31:40.909Z,20.70
2022-08-05T07:32:26.766Z,20.50
2022-08-05T07:33:37.090Z,20.40
2022-08-05T07:34:28.782Z,22.00
2022-08-05T07:36:02.115Z,21.00
2022-08-05T07:36:26.716Z,18.20
2022-08-05T07:37:28.919Z,21.10
2022-08-05T07:38:33.472Z,17.30
2022-08-05T07:40:04.400Z,16.20
2022-08-05T07:40:33.019Z,16.30
2022-08-05T07:42:09.287Z,17.80
2022-08-05T07:42:31.866Z,14.50
2022-08-05T07:43:26.624Z,17.20
2022-08-05T07:44:25.607Z,16.20
2022-08-05T07:45:56.547Z,16.10
2022-08-05T07:46:26.809Z,18.10
2022-08-05T07:47:25.606Z,13.70
2022-08-05T07:49:03.076Z,14.60
2022-08-05T07:49:26.538Z,19.00
2022-08-05T07:50:26.730Z,14.00
2022-08-05T07:51:37.325Z,15.80
2022-08-05T07:52:26.508Z,14.40
2022-08-05T07:53:26.905Z,15.30
2022-08-05T07:54:30.884Z,18.50
2022-08-05T07:56:04.756Z,14.60
2022-08-05T07:56:59.791Z,13.40
2022-08-05T07:57:51.298Z,11.60
2022-08-05T07:58:57.412Z,12.10
2022-08-05T07:59:38.311Z,10.00
2022-08-05T08:00:26.384Z,10.90
2022-08-05T08:01:25.464Z,16.90
2022-08-05T08:02:26.576Z,11.00
2022-08-05T08:03:44.075Z,13.60
2022-08-05T08:04:37.676Z,11.00
2022-08-05T08:05:26.465Z,12.00
2022-08-05T08:06:28.112Z,12.40
2022-08-05T08:07:25.472Z,12.00
2022-08-05T08:08:26.045Z,12.00
2022-08-05T08:09:25.284Z,13.70
2022-08-05T08:10:25.266Z,13.90
2022-08-05T08:11:27.687Z,12.20
2022-08-05T08:12:35.035Z,15.30
2022-08-05T08:13:29.121Z,14.60
2022-08-05T08:14:25.224Z,10.80
2022-08-05T08:16:33.619Z,12.10
2022-08-05T08:16:35.251Z,13.90
2022-08-05T08:17:27.899Z,13.20
2022-08-05T08:18:25.155Z,10.60
2022-08-05T08:20:22.669Z,11.50
2022-08-05T08:20:44.574Z,12.90
2022-08-05T08:21:26.123Z,9.90
2022-08-05T08:22:25.111Z,17.30
2022-08-05T08:24:03.315Z,12.10
2022-08-05T08:24:46.001Z,10.40
2022-08-05T08:25:26.740Z,11.10
2022-08-05T08:26:29.674Z,14.80
2022-08-05T08:27:35.600Z,11.50
2022-08-05T08:28:36.482Z,11.20
2022-08-05T08:30:04.595Z,9.20
2022-08-05T08:30:32.891Z,8.50
2022-08-05T08:31:26.865Z,7.00
2022-08-05T08:32:27.820Z,11.60
2022-08-05T08:33:24.964Z,10.60
2022-08-05T08:34:30.236Z,11.70
2022-08-05T08:35:26.688Z,6.50
2022-08-05T08:36:38.830Z,10.50
2022-08-05T08:37:27.890Z,10.20
2022-08-05T08:38:35.913Z,10.70
2022-08-05T08:39:25.899Z,10.20
2022-08-05T08:40:24.862Z,8.20
2022-08-05T08:41:26.122Z,11.20
2022-08-05T08:42:46.959Z,11.10
2022-08-05T08:45:18.518Z,9.30
2022-08-05T08:45:19.418Z,6.90
2022-08-05T08:45:29.608Z,14.10
2022-08-05T08:46:24.781Z,10.60
2022-08-05T08:48:05.481Z,10.80
2022-08-05T08:49:00.988Z,11.40
2022-08-05T08:50:23.069Z,8.20
2022-08-05T08:50:31.716Z,8.90
2022-08-05T08:52:03.312Z,10.40
2022-08-05T08:52:26.020Z,8.30
2022-08-05T08:53:24.699Z,13.40
2022-08-05T08:54:27.123Z,9.60
2022-08-05T08:56:02.103Z,6.90
2022-08-05T08:56:27.086Z,7.30
2022-08-05T08:57:24.642Z,7.50
2022-08-05T08:58:36.895Z,5.00
2022-08-05T08:59:27.513Z,10.60
2022-08-05T09:00:24.647Z,5.30
2022-08-05T09:01:24.598Z,7.50
2022-08-05T09:02:26.891Z,10.50
2022-08-05T09:03:24.558Z,8.60
2022-08-05T09:04:30.299Z,7.40
2022-08-05T09:05:38.586Z,10.90
2022-08-05T09:06:28.198Z,6.90
2022-08-05T09:07:28.747Z,6.90
2022-08-05T09:08:27.478Z,7.70
2022-08-05T09:09:26.040Z,7.00
2022-08-05T09:10:27.156Z,7.70
2022-08-05T09:11:51.580Z,9.30
2022-08-05T09:12:27.360Z,9.30
2022-08-05T09:13:24.427Z,8.80
2022-08-05T09:14:56.816Z,9.00
2022-08-05T09:15:25.407Z,8.70
2022-08-05T09:16:26.922Z,9.80
2022-08-05T09:17:41.124Z,10.50
2022-08-05T09:18:25.359Z,8.50
2022-08-05T09:19:28.053Z,9.40
2022-08-05T09:20:36.758Z,9.20
2022-08-05T09:22:23.040Z,4.20
2022-08-05T09:22:32.088Z,7.60
2022-08-05T09:23:27.219Z,10.70
2022-08-05T09:24:24.398Z,6.40
2022-08-05T09:26:00.325Z,8.40
2022-08-05T09:26:25.246Z,7.40
2022-08-05T09:28:05.497Z,8.90
2022-08-05T09:28:32.524Z,8.50
2022-08-05T09:29:30.908Z,8.20
2022-08-05T09:30:25.199Z,8.20
2022-08-05T09:32:39.241Z,8.30
2022-08-05T09:32:39.888Z,9.20
2022-08-05T09:33:25.157Z,7.80
2022-08-05T09:34:26.162Z,6.50
2022-08-05T09:35:27.236Z,11.40
2022-08-05T09:36:27.368Z,4.80
2022-08-05T09:38:12.433Z,7.30
2022-08-05T09:38:27.510Z,7.40
2022-08-05T09:39:24.135Z,7.90
2022-08-05T09:40:25.099Z,4.30
2022-08-05T09:41:24.054Z,10.90
2022-08-05T09:42:28.505Z,6.80
2022-08-05T09:43:24.024Z,6.60
2022-08-05T09:44:24.016Z,5.70
2022-08-05T09:46:07.669Z,7.80
2022-08-05T09:46:28.033Z,8.10
2022-08-05T09:47:23.984Z,10.10
2022-08-05T09:48:23.954Z,6.00
2022-08-05T09:49:23.954Z,6.10
2022-08-05T09:50:38.690Z,9.00
2022-08-05T09:51:24.915Z,6.10
2022-08-05T09:52:24.058Z,7.20
2022-08-05T09:53:26.008Z,8.00
2022-08-05T09:54:29.318Z,10.10
2022-08-05T09:55:57.053Z,6.50
2022-08-05T09:56:24.862Z,7.60
2022-08-05T09:57:23.854Z,8.20
2022-08-05T09:58:23.848Z,8.60
2022-08-05T09:59:23.816Z,7.90
2022-08-05T10:00:23.803Z,6.10
2022-08-05T10:01:32.366Z,4.80
2022-08-05T10:02:25.096Z,4.30
2022-08-05T10:03:23.762Z,6.10
2022-08-05T10:04:28.626Z,6.30
2022-08-05T10:05:23.820Z,3.80
2022-08-05T10:06:23.743Z,9.00
2022-08-05T10:08:11.247Z,12.00
2022-08-05T10:08:36.322Z,5.40
2022-08-05T10:09:28.325Z,6.10
2022-08-05T10:10:28.167Z,8.40
2022-08-05T10:11:29.643Z,8.00
2022-08-05T10:12:31.515Z,10.00
2022-08-05T10:13:24.631Z,5.00
2022-08-05T10:14:23.621Z,8.10
2022-08-05T10:15:23.601Z,9.30
2022-08-05T10:16:23.592Z,5.00
2022-08-05T10:17:37.705Z,6.70
2022-08-05T10:18:24.571Z,4.30
2022-08-05T10:20:02.954Z,8.00
2022-08-05T10:20:25.134Z,7.50
2022-08-05T10:21:23.530Z,9.40
2022-08-05T10:22:30.385Z,6.40
2022-08-05T10:23:56.032Z,7.80
2022-08-05T10:24:24.974Z,10.70
2022-08-05T10:25:23.472Z,5.40
2022-08-05T10:26:31.638Z,8.80
2022-08-05T10:27:26.327Z,7.10
2022-08-05T10:28:29.304Z,5.00
2022-08-05T10:29:24.420Z,4.90
2022-08-05T10:31:19.922Z,8.10
2022-08-05T10:32:52.563Z,5.20
2022-08-05T10:32:52.722Z,7.00
2022-08-05T10:33:24.369Z,6.70
2022-08-05T10:34:25.805Z,5.70
2022-08-05T10:35:24.340Z,7.40
2022-08-05T10:36:26.131Z,5.10
2022-08-05T10:37:23.329Z,7.00
2022-08-05T10:38:24.310Z,4.80
2022-08-05T10:39:25.106Z,5.80
2022-08-05T10:40:28.072Z,5.90
2022-08-05T10:41:23.790Z,7.20
2022-08-05T10:42:33.741Z,6.70
2022-08-05T10:43:24.238Z,7.90
2022-08-05T10:44:24.228Z,4.90
2022-08-05T10:45:40.418Z,7.30
2022-08-05T10:46:24.273Z,8.50
2022-08-05T10:47:26.864Z,4.50
2022-08-05T10:48:31.877Z,6.40
2022-08-05T10:49:27.198Z,6.10
2022-08-05T10:50:36.603Z,4.50
2022-08-05T10:51:28.869Z,4.40
2022-08-05T10:52:24.350Z,5.40
2022-08-05T10:53:23.108Z,3.40
2022-08-05T10:54:29.865Z,5.90
2022-08-05T10:55:24.081Z,5.70
2022-08-05T10:56:25.909Z,9.80
2022-08-05T10:57:23.077Z,4.90
2022-08-05T10:58:23.057Z,4.80
2022-08-05T11:00:02.414Z,5.00
2022-08-05T11:00:24.028Z,5.00
2022-08-05T11:01:28.376Z,3.30
2022-08-05T11:02:38.371Z,10.80
2022-08-05T11:03:26.940Z,5.60
2022-08-05T11:04:22.967Z,4.90
2022-08-05T11:05:26.274Z,5.70
2022-08-05T11:06:30.829Z,3.80
2022-08-05T11:07:33.350Z,8.50
2022-08-05T11:08:37.904Z,4.10
2022-08-05T11:09:24.456Z,6.00
2022-08-05T11:10:27.555Z,5.50
2022-08-05T11:11:23.877Z,7.20
2022-08-05T11:12:24.043Z,5.10
2022-08-05T11:13:22.854Z,8.40
2022-08-05T11:14:37.084Z,4.60
2022-08-05T11:15:23.826Z,5.60
2022-08-05T11:16:34.013Z,3.50
2022-08-05T11:17:58.917Z,3.90
2022-08-05T11:18:23.785Z,3.60
2022-08-05T11:20:16.603Z,3.70
2022-08-05T11:20:23.768Z,3.90
2022-08-05T11:21:22.756Z,7.80
2022-08-05T11:22:22.745Z,4.40
2022-08-05T11:23:22.736Z,2.80
2022-08-05T11:24:30.707Z,3.30
2022-08-05T11:26:05.849Z,3.00
2022-08-05T11:26:28.646Z,5.20
2022-08-05T11:27:23.774Z,4.40
2022-08-05T11:28:23.229Z,2.30
2022-08-05T11:29:22.665Z,1.60
2022-08-05T11:30:22.635Z,3.70
2022-08-05T11:31:57.537Z,4.20
2022-08-05T11:32:23.614Z,5.10
2022-08-05T11:33:22.597Z,3.60
2022-08-05T11:34:22.806Z,5.10
2022-08-05T11:35:22.585Z,3.50
2022-08-05T11:36:34.698Z,2.40
2022-08-05T11:38:28.420Z,3.80
2022-08-05T11:38:29.692Z,2.70
2022-08-05T11:39:23.610Z,2.40
2022-08-05T11:40:22.605Z,4.10
2022-08-05T11:41:58.056Z,2.10
2022-08-05T11:42:23.484Z,3.30
2022-08-05T11:44:04.925Z,3.00
2022-08-05T11:44:40.659Z,2.80
2022-08-05T11:46:15.310Z,2.60
2022-08-05T11:46:23.513Z,3.30
2022-08-05T11:47:49.059Z,5.50
2022-08-05T11:48:23.416Z,3.30
2022-08-05T11:49:22.394Z,5.80
2022-08-05T11:50:22.383Z,3.60
2022-08-05T11:51:44.207Z,2.10
2022-08-05T11:52:23.370Z,5.30
2022-08-05T11:53:23.345Z,3.40
2022-08-05T11:54:22.334Z,6.20
2022-08-05T11:55:23.324Z,6.10
2022-08-05T11:56:23.303Z,3.30
2022-08-05T11:57:25.259Z,2.00
2022-08-05T11:58:22.283Z,4.40
2022-08-05T11:59:22.263Z,4.50
2022-08-05T12:00:22.243Z,5.60
2022-08-05T12:01:23.244Z,8.00
2022-08-05T12:02:29.686Z,3.30
2022-08-05T12:03:29.243Z,2.30
2022-08-05T12:04:23.193Z,4.50
2022-08-05T12:05:25.974Z,4.90
2022-08-05T12:06:23.173Z,4.10
2022-08-05T12:08:03.702Z,4.30
2022-08-05T12:08:23.154Z,5.50
2022-08-05T12:09:22.133Z,5.40
2022-08-05T12:10:23.112Z,4.30
2022-08-05T12:11:22.112Z,5.30
2022-08-05T12:12:22.123Z,5.00
2022-08-05T12:13:48.422Z,4.80
2022-08-05T12:14:24.237Z,2.20
2022-08-05T12:15:38.570Z,3.40
2022-08-05T12:16:27.066Z,3.70
2022-08-05T12:18:03.399Z,3.90
2022-08-05T12:18:24.346Z,5.00
2022-08-05T12:20:25.918Z,5.80
2022-08-05T12:20:28.854Z,4.50
2022-08-05T12:21:23.766Z,3.40
2022-08-05T12:22:21.994Z,8.50
2022-08-05T12:23:21.953Z,3.30
2022-08-05T12:24:21.964Z,5.20
2022-08-05T12:25:24.643Z,2.20
2022-08-05T12:26:23.205Z,2.90
2022-08-05T12:27:25.076Z,4.10
2022-08-05T12:28:21.892Z,3.70
2022-08-05T12:29:23.548Z,4.20
2022-08-05T12:30:21.885Z,6.90
2022-08-05T12:31:23.764Z,4.40
2022-08-05T12:32:22.852Z,4.90
2022-08-05T12:33:27.676Z,5.10
2022-08-05T12:34:23.560Z,6.00
2022-08-05T12:35:21.997Z,2.70
2022-08-05T12:36:21.833Z,5.80
2022-08-05T12:37:21.963Z,8.10
2022-08-05T12:38:22.360Z,5.40
2022-08-05T12:39:23.751Z,4.30
2022-08-05T12:40:26.905Z,3.80
2022-08-05T12:41:22.723Z,4.40
2022-08-05T12:42:25.319Z,2.80
2022-08-05T12:43:21.702Z,5.00
2022-08-05T12:44:33.946Z,4.80
2022-08-05T12:45:22.672Z,3.80
2022-08-05T12:46:28.038Z,4.60
2022-08-05T12:47:22.888Z,2.80
2022-08-05T12:48:32.097Z,5.30
2022-08-05T12:49:25.553Z,4.90
2022-08-05T12:50:21.610Z,5.00
2022-08-05T12:52:12.115Z,6.40
2022-08-05T12:52:27.033Z,5.00
2022-08-05T12:53:22.582Z,3.80
2022-08-05T12:54:23.672Z,5.10
2022-08-05T12:55:22.027Z,4.80
2022-08-05T12:56:35.041Z,4.80
2022-08-05T12:57:23.410Z,4.50
2022-08-05T12:58:49.716Z,7.80
2022-08-05T12:59:27.603Z,5.10
2022-08-05T13:02:01.158Z,3.50
2022-08-05T13:02:01.665Z,4.20
2022-08-05T13:02:22.526Z,3.80
2022-08-05T13:03:22.516Z,4.80
2022-08-05T13:04:21.505Z,5.10
2022-08-05T13:05:21.421Z,4.10
2022-08-05T13:06:21.422Z,7.30
2022-08-05T13:07:41.378Z,4.70
2022-08-05T13:08:22.381Z,5.90
2022-08-05T13:09:28.216Z,5.40
2022-08-05T13:10:22.361Z,6.90
2022-08-05T13:11:57.922Z,5.50